createdAt,value
2022-12-04T00:00:21.588Z,93.71
2022-12-04T00:03:24.040Z,94.23
2022-12-04T00:06:27.212Z,94.10
2022-12-04T00:09:29.771Z,94.94
2022-12-04T00:12:31.933Z,94.15
2022-12-04T00:15:34.377Z,94.19
2022-12-04T00:18:36.727Z,94.26
2022-12-04T00:21:41.518Z,95.13
2022-12-04T00:24:44.062Z,96.48
2022-12-04T00:27:46.460Z,96.71
2022-12-04T00:30:48.602Z,96.89
2022-12-04T00:33:51.409Z,97.87
2022-12-04T00:36:53.554Z,96.65
2022-12-04T00:39:56.160Z,97.01
2022-12-04T00:42:58.514Z,96.96
2022-12-04T00:46:00.939Z,95.97
2022-12-04T00:49:03.247Z,96.07
2022-12-04T00:52:05.613Z,96.21
2022-12-04T00:55:08.616Z,95.98
2022-12-04T00:58:12.022Z,96.17
2022-12-04T01:01:18.573Z,95.75
2022-12-04T01:04:21.280Z,96.53
2022-12-04T01:07:23.453Z,96.10
2022-12-04T01:10:25.884Z,96.54
2022-12-04T01:13:28.014Z,96.98
2022-12-04T01:16:36.159Z,96.73
2022-12-04T01:19:40.750Z,96.76
2022-12-04T01:22:43.230Z,97.38
2022-12-04T01:25:54.166Z,97.63
2022-12-04T01:28:56.584Z,97.31
2022-12-04T01:31:59.103Z,97.42
2022-12-04T01:35:01.737Z,96.97
2022-12-04T01:38:03.870Z,95.74
2022-12-04T01:41:07.723Z,96.19
2022-12-04T01:44:19.926Z,95.71
2022-12-04T01:47:22.658Z,96.02
2022-12-04T01:50:25.065Z,95.86
2022-12-04T01:53:29.274Z,96.15
2022-12-04T01:56:36.728Z,96.61
2022-12-04T01:59:50.346Z,97.84
2022-12-04T02:02:52.944Z,97.77
2022-12-04T02:05:55.426Z,97.69
2022-12-04T02:08:58.020Z,99.12
2022-12-04T02:12:23.790Z,97.66
2022-12-04T02:15:45.642Z,97.55
2022-12-04T02:19:26.682Z,97.55
2022-12-04T02:23:00.994Z,98.87
2022-12-04T02:26:12.458Z,98.41
2022-12-04T02:29:17.740Z,98.48
2022-12-04T02:32:27.898Z,100.00
2022-12-04T02:35:38.719Z,99.78
2022-12-04T02:38:48.318Z,99.92
2022-12-04T02:42:04.457Z,100.00
2022-12-04T02:45:16.538Z,100.00
2022-12-04T02:48:21.052Z,100.00
2022-12-04T02:51:30.057Z,100.00
2022-12-04T02:54:40.190Z,100.00
2022-12-04T02:57:48.622Z,100.00
2022-12-04T03:00:54.520Z,100.00
2022-12-04T03:04:12.432Z,100.00
2022-12-04T03:07:19.848Z,100.00
2022-12-04T03:10:28.033Z,100.00
2022-12-04T03:13:41.771Z,100.00
2022-12-04T03:16:48.411Z,100.00
2022-12-04T03:19:56.992Z,100.00
2022-12-04T03:23:03.405Z,100.00
2022-12-04T03:26:22.712Z,100.00
2022-12-04T03:29:33.677Z,100.00
2022-12-04T03:32:55.662Z,100.00
2022-12-04T03:36:10.093Z,100.00
2022-12-04T03:39:20.864Z,100.00
2022-12-04T03:42:28.795Z,100.00
2022-12-04T03:45:44.190Z,100.00
2022-12-04T03:48:53.843Z,100.00
2022-12-04T03:52:04.689Z,100.00
2022-12-04T03:55:15.692Z,100.00
2022-12-04T03:58:28.288Z,100.00
2022-12-04T04:01:38.643Z,100.00
2022-12-04T04:04:45.320Z,100.00
2022-12-04T04:07:50.081Z,100.00
2022-12-04T04:11:22.227Z,100.00
2022-12-04T04:14:51.131Z,100.00
2022-12-04T04:18:15.241Z,100.00
2022-12-04T04:21:42.199Z,100.00
2022-12-04T04:24:57.891Z,100.00
2022-12-04T04:28:00.043Z,100.00
2022-12-04T04:31:45.233Z,100.00
2022-12-04T04:35:15.200Z,100.00
2022-12-04T04:38:31.758Z,100.00
2022-12-04T04:41:46.170Z,100.00
2022-12-04T04:45:21.827Z,100.00
2022-12-04T04:48:31.606Z,99.64
2022-12-04T04:51:36.912Z,99.10
2022-12-04T04:54:39.793Z,98.97
2022-12-04T04:57:42.144Z,97.90
2022-12-04T05:00:56.456Z,97.22
2022-12-04T05:03:58.868Z,97.12
2022-12-04T05:07:01.038Z,96.90
2022-12-04T05:10:04.690Z,97.94
2022-12-04T05:13:06.820Z,99.19
2022-12-04T05:16:13.258Z,98.27
2022-12-04T05:19:34.654Z,97.41
2022-12-04T05:22:37.425Z,97.09
2022-12-04T05:25:39.608Z,97.61
2022-12-04T05:28:45.149Z,97.20
2022-12-04T05:31:47.294Z,96.86
2022-12-04T05:34:51.759Z,96.28
2022-12-04T05:37:53.962Z,97.01
2022-12-04T05:41:00.510Z,96.94
2022-12-04T05:44:02.605Z,97.39
2022-12-04T05:47:06.008Z,96.59
2022-12-04T05:50:10.094Z,96.13
2022-12-04T05:53:12.816Z,96.15
2022-12-04T05:56:17.380Z,96.57
2022-12-04T05:59:21.510Z,96.61
2022-12-04T06:02:23.748Z,96.63
2022-12-04T06:05:26.329Z,97.48
2022-12-04T06:08:31.180Z,97.25
2022-12-04T06:11:36.541Z,95.44
2022-12-04T06:14:39.997Z,95.68
2022-12-04T06:17:42.579Z,96.21
2022-12-04T06:20:44.806Z,96.34
2022-12-04T06:23:47.624Z,97.53
2022-12-04T06:27:25.782Z,98.58
2022-12-04T06:30:13.160Z,97.14
2022-12-04T06:33:15.356Z,96.81
2022-12-04T06:36:21.121Z,96.12
2022-12-04T06:39:23.380Z,96.02
2022-12-04T06:42:26.151Z,96.53
2022-12-04T06:45:28.341Z,95.75
2022-12-04T06:48:31.022Z,95.01
2022-12-04T06:51:36.473Z,94.97
2022-12-04T06:54:38.984Z,96.82
2022-12-04T06:57:41.131Z,97.52
2022-12-04T07:00:43.863Z,96.86
2022-12-04T07:03:51.259Z,96.87
2022-12-04T07:06:54.672Z,97.82
2022-12-04T07:09:56.982Z,98.28
2022-12-04T07:12:59.528Z,97.76
2022-12-04T07:16:04.037Z,97.45
2022-12-04T07:19:06.592Z,98.40
2022-12-04T07:22:08.993Z,97.78
2022-12-04T07:25:11.518Z,98.74
2022-12-04T07:28:13.973Z,98.86
2022-12-04T07:31:20.323Z,98.60
2022-12-04T07:34:22.781Z,99.02
2022-12-04T07:37:25.253Z,99.52
2022-12-04T07:40:28.493Z,99.86
2022-12-04T07:43:31.865Z,99.52
2022-12-04T07:46:34.181Z,99.53
2022-12-04T07:49:36.718Z,98.71
2022-12-04T07:52:39.737Z,98.78
2022-12-04T07:55:42.453Z,98.28
2022-12-04T07:58:45.281Z,98.52
2022-12-04T08:01:47.767Z,99.31
2022-12-04T08:04:51.441Z,99.26
2022-12-04T08:07:54.535Z,98.30
2022-12-04T08:10:57.298Z,98.51
2022-12-04T08:14:01.906Z,98.47
2022-12-04T08:17:04.333Z,98.03
2022-12-04T08:20:07.514Z,97.74
2022-12-04T08:23:10.122Z,97.56
2022-12-04T08:26:12.799Z,97.42
2022-12-04T08:29:15.306Z,96.57
2022-12-04T08:32:17.382Z,96.36
2022-12-04T08:35:19.743Z,96.42
2022-12-04T08:38:21.865Z,96.09
2022-12-04T08:41:26.624Z,94.51
2022-12-04T08:44:28.776Z,94.65
2022-12-04T08:47:31.255Z,94.59
2022-12-04T08:50:33.528Z,93.90
2022-12-04T08:53:38.884Z,92.65
2022-12-04T08:56:41.130Z,92.69
2022-12-04T08:59:43.670Z,91.95
2022-12-04T09:02:49.776Z,92.06
2022-12-04T09:05:52.292Z,92.38
2022-12-04T09:08:55.748Z,91.99
2022-12-04T09:11:58.188Z,91.62
2022-12-04T09:15:01.542Z,91.98
2022-12-04T09:18:04.042Z,91.72
2022-12-04T09:21:09.372Z,92.38
2022-12-04T09:24:11.864Z,92.13
2022-12-04T09:27:15.057Z,90.99
2022-12-04T09:30:18.177Z,91.58
2022-12-04T09:33:20.403Z,91.64
2022-12-04T09:36:23.299Z,91.88
2022-12-04T09:39:25.538Z,91.54
2022-12-04T09:42:47.823Z,90.65
2022-12-04T09:45:55.305Z,90.07
2022-12-04T09:49:02.139Z,91.36
2022-12-04T09:52:21.964Z,89.63
2022-12-04T09:55:44.055Z,89.35
2022-12-04T09:59:03.111Z,89.35
2022-12-04T10:02:37.479Z,89.65
2022-12-04T10:05:58.404Z,88.63
2022-12-04T10:09:07.715Z,88.57
2022-12-04T10:12:33.415Z,89.56
2022-12-04T10:15:52.740Z,87.49
2022-12-04T10:19:12.800Z,87.65
2022-12-04T10:22:38.155Z,87.77
2022-12-04T10:25:42.129Z,87.48
2022-12-04T10:28:55.457Z,86.50
2022-12-04T10:32:16.442Z,85.42
2022-12-04T10:35:23.252Z,83.62
2022-12-04T10:38:47.523Z,83.36
2022-12-04T10:42:00.819Z,81.95
2022-12-04T10:45:05.870Z,83.61
2022-12-04T10:48:20.589Z,79.50
2022-12-04T10:51:24.015Z,79.14
2022-12-04T10:54:35.821Z,79.65
2022-12-04T10:57:44.226Z,81.12
2022-12-04T11:01:05.178Z,79.37
2022-12-04T11:04:18.565Z,81.07
2022-12-04T11:07:27.908Z,78.96
2022-12-04T11:10:41.047Z,78.83
2022-12-04T11:13:43.238Z,77.89
2022-12-04T11:16:51.989Z,78.46
2022-12-04T11:20:21.902Z,78.83
2022-12-04T11:23:26.738Z,76.88
2022-12-04T11:26:35.338Z,77.90
2022-12-04T11:29:43.040Z,78.59
2022-12-04T11:32:46.372Z,78.06
2022-12-04T11:35:55.687Z,80.18
2022-12-04T11:39:15.635Z,78.50
2022-12-04T11:42:28.051Z,79.33
2022-12-04T11:45:30.983Z,78.93
2022-12-04T11:48:43.461Z,78.74
2022-12-04T11:52:23.433Z,78.60
2022-12-04T11:55:38.793Z,77.13
2022-12-04T11:58:49.913Z,78.53
2022-12-04T12:02:11.427Z,78.29
2022-12-04T12:05:23.243Z,77.76
2022-12-04T12:08:31.740Z,76.18
2022-12-04T12:11:50.437Z,78.12
2022-12-04T12:15:18.616Z,77.15
2022-12-04T12:18:37.447Z,77.44
2022-12-04T12:22:11.993Z,78.08
2022-12-04T12:25:29.862Z,76.90
2022-12-04T12:28:38.686Z,78.82
2022-12-04T12:32:00.768Z,78.71
2022-12-04T12:35:13.329Z,78.22
2022-12-04T12:38:21.124Z,78.24
2022-12-04T12:41:29.337Z,78.42
2022-12-04T12:44:51.385Z,77.83
2022-12-04T12:48:00.545Z,77.62
2022-12-04T12:51:31.474Z,78.59
2022-12-04T12:54:44.533Z,77.65
2022-12-04T12:57:56.368Z,77.65
2022-12-04T13:01:08.084Z,77.96
2022-12-04T13:04:41.844Z,76.05
2022-12-04T13:08:00.464Z,76.25
2022-12-04T13:11:17.284Z,76.83
2022-12-04T13:14:19.868Z,76.70
2022-12-04T13:17:35.643Z,77.61
2022-12-04T13:20:46.120Z,77.04
2022-12-04T13:24:01.306Z,77.93
2022-12-04T13:27:19.095Z,77.50
2022-12-04T13:30:43.857Z,77.68
2022-12-04T13:34:03.300Z,78.32
2022-12-04T13:37:41.261Z,77.61
2022-12-04T13:40:48.194Z,78.11
2022-12-04T13:43:53.974Z,78.59
2022-12-04T13:47:04.318Z,78.02
2022-12-04T13:50:34.103Z,78.70
2022-12-04T13:53:40.327Z,78.67
2022-12-04T13:56:45.878Z,79.62
2022-12-04T13:59:49.115Z,79.84
2022-12-04T14:02:57.029Z,79.61
2022-12-04T14:06:05.411Z,79.18
2022-12-04T14:09:19.946Z,80.09
2022-12-04T14:12:32.617Z,79.80
2022-12-04T14:15:38.793Z,80.07
2022-12-04T14:18:47.501Z,80.78
2022-12-04T14:21:49.937Z,80.38
2022-12-04T14:24:52.584Z,81.42
2022-12-04T14:27:55.282Z,81.23
2022-12-04T14:31:04.012Z,80.55
2022-12-04T14:34:23.684Z,80.98
2022-12-04T14:37:35.968Z,79.94
2022-12-04T14:40:44.150Z,80.80
2022-12-04T14:43:49.940Z,80.51
2022-12-04T14:46:54.994Z,80.33
2022-12-04T14:50:15.065Z,81.88
2022-12-04T14:53:38.437Z,82.05
2022-12-04T14:56:48.220Z,82.13
2022-12-04T14:59:53.685Z,82.61
2022-12-04T15:03:00.018Z,82.57
2022-12-04T15:06:05.787Z,83.25
2022-12-04T15:09:36.722Z,83.21
2022-12-04T15:12:47.141Z,83.56
2022-12-04T15:15:50.217Z,83.83
2022-12-04T15:18:58.621Z,84.23
2022-12-04T15:22:10.095Z,84.19
2022-12-04T15:25:18.149Z,84.62
2022-12-04T15:28:23.661Z,83.91
2022-12-04T15:31:34.971Z,85.11
2022-12-04T15:34:41.886Z,84.54
2022-12-04T15:37:44.086Z,85.74
2022-12-04T15:41:04.883Z,86.94
2022-12-04T15:44:33.086Z,87.86
2022-12-04T15:47:53.876Z,88.15
2022-12-04T15:50:59.122Z,86.34
2022-12-04T15:54:02.622Z,86.27
2022-12-04T15:57:26.579Z,86.94
2022-12-04T16:00:32.860Z,86.82
2022-12-04T16:03:56.022Z,86.69
2022-12-04T16:06:58.407Z,87.82
2022-12-04T16:10:04.261Z,87.10
2022-12-04T16:13:06.521Z,87.65
2022-12-04T16:16:14.208Z,88.42
2022-12-04T16:19:33.121Z,89.00
2022-12-04T16:22:35.673Z,88.37
2022-12-04T16:25:37.884Z,88.11
2022-12-04T16:28:40.508Z,88.67
2022-12-04T16:31:43.149Z,89.78
2022-12-04T16:34:46.310Z,89.61
2022-12-04T16:37:48.690Z,89.69
2022-12-04T16:40:51.115Z,89.54
2022-12-04T16:43:56.079Z,90.20
2022-12-04T16:46:58.608Z,89.96
2022-12-04T16:50:00.894Z,90.47
2022-12-04T16:53:03.408Z,89.67
2022-12-04T16:56:05.762Z,90.50
2022-12-04T16:59:11.953Z,90.27
2022-12-04T17:02:27.204Z,89.52
2022-12-04T17:05:32.118Z,90.21
2022-12-04T17:08:34.281Z,91.45
2022-12-04T17:11:37.629Z,92.18
2022-12-04T17:14:40.530Z,91.02
2022-12-04T17:17:42.998Z,92.60
2022-12-04T17:20:45.284Z,92.32
2022-12-04T17:23:47.766Z,93.86
2022-12-04T17:26:49.880Z,93.50
2022-12-04T17:29:54.570Z,95.09
2022-12-04T17:32:56.820Z,95.46
2022-12-04T17:36:03.413Z,94.22
2022-12-04T17:39:07.377Z,93.54
2022-12-04T17:42:09.964Z,95.28
2022-12-04T17:45:14.286Z,94.26
2022-12-04T17:48:16.813Z,94.76
2022-12-04T17:51:23.692Z,95.19
2022-12-04T17:54:26.098Z,95.73
2022-12-04T17:57:28.484Z,94.88
2022-12-04T18:00:31.049Z,97.10
2022-12-04T18:03:34.462Z,96.06
2022-12-04T18:06:40.001Z,96.67
2022-12-04T18:09:43.888Z,95.55
2022-12-04T18:12:46.110Z,97.93
2022-12-04T18:15:48.684Z,100.00
2022-12-04T18:18:53.640Z,99.80
2022-12-04T18:21:56.987Z,99.49
2022-12-04T18:25:00.549Z,97.05
2022-12-04T18:28:04.527Z,97.73
2022-12-04T18:31:07.974Z,100.00
2022-12-04T18:34:11.709Z,100.00
2022-12-04T18:37:14.004Z,100.00
2022-12-04T18:40:16.580Z,100.00
2022-12-04T18:43:18.986Z,100.00
2022-12-04T18:46:22.373Z,99.85
2022-12-04T18:49:24.693Z,98.41
2022-12-04T18:52:27.151Z,99.75
2022-12-04T18:55:29.331Z,98.11
2022-12-04T18:58:31.803Z,99.97
2022-12-04T19:01:34.191Z,98.06
2022-12-04T19:04:38.676Z,99.27
2022-12-04T19:07:40.858Z,97.80
2022-12-04T19:10:43.374Z,99.33
2022-12-04T19:13:45.623Z,98.38
2022-12-04T19:16:48.518Z,98.61
2022-12-04T19:19:51.770Z,96.87
2022-12-04T19:22:54.244Z,97.96
2022-12-04T19:25:58.094Z,97.58
2022-12-04T19:29:02.373Z,97.64
2022-12-04T19:32:04.839Z,97.78
2022-12-04T19:35:08.496Z,98.22
2022-12-04T19:38:11.000Z,97.13
2022-12-04T19:41:16.608Z,95.47
2022-12-04T19:47:43.948Z,97.58
2022-12-04T19:50:46.159Z,95.07
2022-12-04T19:53:49.140Z,95.88
2022-12-04T19:56:52.592Z,95.23
2022-12-04T19:59:55.574Z,96.50
2022-12-04T20:02:57.880Z,94.83
2022-12-04T20:06:09.310Z,95.06
2022-12-04T20:09:14.829Z,94.30
2022-12-04T20:12:17.380Z,93.21
2022-12-04T20:15:20.229Z,93.78
2022-12-04T20:18:22.901Z,93.38
2022-12-04T20:21:30.820Z,94.73
2022-12-04T20:24:33.357Z,93.83
2022-12-04T20:27:35.601Z,93.55
2022-12-04T20:30:38.202Z,93.16
2022-12-04T20:33:41.229Z,93.09
2022-12-04T20:36:45.828Z,93.78
2022-12-04T20:39:47.969Z,93.42
2022-12-04T20:42:50.373Z,93.97
2022-12-04T20:45:52.540Z,93.93
2022-12-04T20:48:55.067Z,94.38
2022-12-04T20:51:57.239Z,94.04
2022-12-04T20:55:00.243Z,93.71
2022-12-04T20:58:02.446Z,93.98
2022-12-04T21:01:12.577Z,92.74
2022-12-04T21:04:18.203Z,92.92
2022-12-04T21:07:20.694Z,92.95
2022-12-04T21:10:22.866Z,92.88
2022-12-04T21:13:43.843Z,93.05
2022-12-04T21:16:47.187Z,93.22
2022-12-04T21:19:50.682Z,92.57
2022-12-04T21:22:52.897Z,94.38
2022-12-04T21:25:56.155Z,93.53
2022-12-04T21:28:58.874Z,91.78
2022-12-04T21:32:02.068Z,91.75
2022-12-04T21:35:04.698Z,91.35
2022-12-04T21:38:07.206Z,91.02
2022-12-04T21:41:10.420Z,91.62
2022-12-04T21:44:16.970Z,92.72
2022-12-04T21:47:19.314Z,91.24
2022-12-04T21:50:21.783Z,91.36
2022-12-04T21:53:24.309Z,90.67
2022-12-04T21:56:26.834Z,91.31
2022-12-04T21:59:29.183Z,89.82
2022-12-04T22:02:32.502Z,89.06
2022-12-04T22:05:35.226Z,90.07
2022-12-04T22:08:40.044Z,87.39
2022-12-04T22:11:43.164Z,88.67
2022-12-04T22:14:45.228Z,87.92
2022-12-04T22:17:47.747Z,87.35
2022-12-04T22:20:50.006Z,86.67
2022-12-04T22:23:57.330Z,86.91
2022-12-04T22:26:59.521Z,86.66
2022-12-04T22:30:02.513Z,86.25
2022-12-04T22:33:05.004Z,85.75
2022-12-04T22:36:12.739Z,86.62
2022-12-04T22:39:14.910Z,85.63
2022-12-04T22:42:17.563Z,85.95
2022-12-04T22:45:19.713Z,86.08
2022-12-04T22:48:22.453Z,86.02
2022-12-04T22:51:24.645Z,85.86
2022-12-04T22:54:27.121Z,85.76
2022-12-04T22:57:29.436Z,86.19
2022-12-04T23:00:31.773Z,85.02
2022-12-04T23:03:34.062Z,84.97
2022-12-04T23:06:38.469Z,85.35
2022-12-04T23:09:40.696Z,85.36
2022-12-04T23:12:43.176Z,86.20
2022-12-04T23:15:45.470Z,85.21
2022-12-04T23:18:48.869Z,86.59
2022-12-04T23:21:56.863Z,84.98
2022-12-04T23:25:00.190Z,86.99
2022-12-04T23:28:02.399Z,85.96
2022-12-04T23:31:05.520Z,85.78
2022-12-04T23:34:07.912Z,86.63
2022-12-04T23:37:10.501Z,85.39
2022-12-04T23:40:13.251Z,85.36
2022-12-04T23:43:16.502Z,85.82
2022-12-04T23:46:21.869Z,86.23
2022-12-04T23:49:24.551Z,85.77
2022-12-04T23:52:27.066Z,86.33
2022-12-04T23:55:34.060Z,86.56
2022-12-04T23:58:37.278Z,86.22
